sensor_id;sensor_type;location;lat;lon;timestamp;temperature;humidity
47961;DHT22;33721;48.852;9.936;2023-09-19T00:01:57;16.80;99.90
47961;DHT22;33721;48.852;9.936;2023-09-19T00:04:23;16.80;99.90
47961;DHT22;33721;48.852;9.936;2023-09-19T00:06:54;16.80;99.90
47961;DHT22;33721;48.852;9.936;2023-09-19T00:09:20;16.80;99.90
47961;DHT22;33721;48.852;9.936;2023-09-19T00:11:45;16.80;99.90
47961;DHT22;33721;48.852;9.936;2023-09-19T00:14:13;16.80;99.90
47961;DHT22;33721;48.852;9.936;2023-09-19T00:16:40;16.70;99.90
47961;DHT22;33721;48.852;9.936;2023-09-19T00:19:06;16.70;99.90
47961;DHT22;33721;48.852;9.936;2023-09-19T00:21:32;16.70;99.90
47961;DHT22;33721;48.852;9.936;2023-09-19T00:23:58;16.70;99.90
47961;DHT22;33721;48.852;9.936;2023-09-19T00:26:23;16.60;99.90
47961;DHT22;33721;48.852;9.936;2023-09-19T00:28:52;16.60;99.90
47961;DHT22;33721;48.852;9.936;2023-09-19T00:31:18;16.50;99.90
47961;DHT22;33721;48.852;9.936;2023-09-19T00:33:44;16.50;99.90
47961;DHT22;33721;48.852;9.936;2023-09-19T00:36:09;16.50;99.90
47961;DHT22;33721;48.852;9.936;2023-09-19T00:38:35;16.50;99.90
47961;DHT22;33721;48.852;9.936;2023-09-19T00:41:00;16.40;99.90
47961;DHT22;33721;48.852;9.936;2023-09-19T00:43:26;16.40;99.90
47961;DHT22;33721;48.852;9.936;2023-09-19T00:45:54;16.40;99.90
47961;DHT22;33721;48.852;9.936;2023-09-19T00:48:24;16.40;99.90
47961;DHT22;33721;48.852;9.936;2023-09-19T00:50:55;16.40;99.90
47961;DHT22;33721;48.852;9.936;2023-09-19T00:53:23;16.40;99.90
47961;DHT22;33721;48.852;9.936;2023-09-19T00:55:51;16.40;99.90
47961;DHT22;33721;48.852;9.936;2023-09-19T00:58:18;16.40;99.90
47961;DHT22;33721;48.852;9.936;2023-09-19T01:00:44;16.30;99.90
47961;DHT22;33721;48.852;9.936;2023-09-19T01:03:10;16.30;99.90
47961;DHT22;33721;48.852;9.936;2023-09-19T01:05:38;16.30;99.90
47961;DHT22;33721;48.852;9.936;2023-09-19T01:08:05;16.30;99.90
47961;DHT22;33721;48.852;9.936;2023-09-19T01:10:32;16.30;99.90
47961;DHT22;33721;48.852;9.936;2023-09-19T01:13:05;16.30;99.90
47961;DHT22;33721;48.852;9.936;2023-09-19T01:21:00;16.30;99.90
47961;DHT22;33721;48.852;9.936;2023-09-19T01:32:02;16.20;99.90
47961;DHT22;33721;48.852;9.936;2023-09-19T01:34:47;16.20;99.90
47961;DHT22;33721;48.852;9.936;2023-09-19T01:37:14;16.10;99.90
47961;DHT22;33721;48.852;9.936;2023-09-19T01:39:45;16.10;99.90
47961;DHT22;33721;48.852;9.936;2023-09-19T01:45:30;16.00;99.90
47961;DHT22;33721;48.852;9.936;2023-09-19T01:51:00;15.90;99.90
47961;DHT22;33721;48.852;9.936;2023-09-19T01:53:26;15.90;99.90
47961;DHT22;33721;48.852;9.936;2023-09-19T01:55:57;15.80;99.90
47961;DHT22;33721;48.852;9.936;2023-09-19T02:00:58;15.90;99.90
47961;DHT22;33721;48.852;9.936;2023-09-19T02:03:26;15.90;99.90
47961;DHT22;33721;48.852;9.936;2023-09-19T02:05:54;15.90;99.90
47961;DHT22;33721;48.852;9.936;2023-09-19T02:08:21;16.00;99.90
47961;DHT22;33721;48.852;9.936;2023-09-19T02:10:49;16.00;99.90
47961;DHT22;33721;48.852;9.936;2023-09-19T02:13:18;16.00;99.90
47961;DHT22;33721;48.852;9.936;2023-09-19T02:15:45;16.00;99.90
47961;DHT22;33721;48.852;9.936;2023-09-19T02:18:14;16.00;99.90
47961;DHT22;33721;48.852;9.936;2023-09-19T02:20:40;16.00;99.90
47961;DHT22;33721;48.852;9.936;2023-09-19T02:23:07;16.00;99.90
47961;DHT22;33721;48.852;9.936;2023-09-19T02:25:33;16.00;99.90
47961;DHT22;33721;48.852;9.936;2023-09-19T02:27:59;16.00;99.90
47961;DHT22;33721;48.852;9.936;2023-09-19T02:30:26;16.00;99.90
47961;DHT22;33721;48.852;9.936;2023-09-19T02:32:52;16.00;99.90
47961;DHT22;33721;48.852;9.936;2023-09-19T02:35:18;16.00;99.90
47961;DHT22;33721;48.852;9.936;2023-09-19T02:37:47;16.00;99.90
47961;DHT22;33721;48.852;9.936;2023-09-19T02:40:13;16.00;99.90
47961;DHT22;33721;48.852;9.936;2023-09-19T02:42:46;16.10;99.90
47961;DHT22;33721;48.852;9.936;2023-09-19T02:45:18;16.10;99.90
47961;DHT22;33721;48.852;9.936;2023-09-19T02:47:44;16.10;99.90
47961;DHT22;33721;48.852;9.936;2023-09-19T02:50:10;16.10;99.90
47961;DHT22;33721;48.852;9.936;2023-09-19T02:52:37;16.20;99.90
47961;DHT22;33721;48.852;9.936;2023-09-19T02:55:03;16.20;99.90
47961;DHT22;33721;48.852;9.936;2023-09-19T02:57:31;16.20;99.90
47961;DHT22;33721;48.852;9.936;2023-09-19T02:59:58;16.20;99.90
47961;DHT22;33721;48.852;9.936;2023-09-19T03:02:26;16.10;99.90
47961;DHT22;33721;48.852;9.936;2023-09-19T03:04:53;16.10;99.90
47961;DHT22;33721;48.852;9.936;2023-09-19T03:07:19;16.10;99.90
47961;DHT22;33721;48.852;9.936;2023-09-19T03:09:45;16.10;99.90
47961;DHT22;33721;48.852;9.936;2023-09-19T03:12:11;16.10;99.90
47961;DHT22;33721;48.852;9.936;2023-09-19T03:14:37;16.00;99.90
47961;DHT22;33721;48.852;9.936;2023-09-19T03:17:02;15.90;99.90
47961;DHT22;33721;48.852;9.936;2023-09-19T03:19:31;15.90;99.90
47961;DHT22;33721;48.852;9.936;2023-09-19T03:21:59;15.80;99.90
47961;DHT22;33721;48.852;9.936;2023-09-19T03:24:25;15.70;99.90
47961;DHT22;33721;48.852;9.936;2023-09-19T03:26:52;15.70;99.90
47961;DHT22;33721;48.852;9.936;2023-09-19T03:29:18;15.60;99.90
47961;DHT22;33721;48.852;9.936;2023-09-19T03:31:44;15.50;99.90
47961;DHT22;33721;48.852;9.936;2023-09-19T03:34:09;15.50;99.90
47961;DHT22;33721;48.852;9.936;2023-09-19T03:36:35;15.50;99.90
47961;DHT22;33721;48.852;9.936;2023-09-19T03:39:02;15.60;99.90
47961;DHT22;33721;48.852;9.936;2023-09-19T03:41:31;15.60;99.90
47961;DHT22;33721;48.852;9.936;2023-09-19T03:43:56;15.60;99.90
47961;DHT22;33721;48.852;9.936;2023-09-19T03:46:22;15.50;99.90
47961;DHT22;33721;48.852;9.936;2023-09-19T03:48:48;15.50;99.90
47961;DHT22;33721;48.852;9.936;2023-09-19T03:51:13;15.50;99.90
47961;DHT22;33721;48.852;9.936;2023-09-19T03:53:39;15.50;99.90
47961;DHT22;33721;48.852;9.936;2023-09-19T03:56:05;15.50;99.90
47961;DHT22;33721;48.852;9.936;2023-09-19T03:58:30;15.50;99.90
47961;DHT22;33721;48.852;9.936;2023-09-19T04:00:56;15.50;99.90
47961;DHT22;33721;48.852;9.936;2023-09-19T04:03:23;15.50;99.90
47961;DHT22;33721;48.852;9.936;2023-09-19T04:05:50;15.60;99.90
47961;DHT22;33721;48.852;9.936;2023-09-19T04:08:16;15.60;99.90
47961;DHT22;33721;48.852;9.936;2023-09-19T04:10:42;15.60;99.90
47961;DHT22;33721;48.852;9.936;2023-09-19T04:13:09;15.70;99.90
47961;DHT22;33721;48.852;9.936;2023-09-19T04:15:34;15.70;99.90
47961;DHT22;33721;48.852;9.936;2023-09-19T04:18:00;15.60;99.90
47961;DHT22;33721;48.852;9.936;2023-09-19T04:20:26;15.70;99.90
47961;DHT22;33721;48.852;9.936;2023-09-19T04:22:51;15.60;99.90
47961;DHT22;33721;48.852;9.936;2023-09-19T04:25:17;15.60;99.90
47961;DHT22;33721;48.852;9.936;2023-09-19T04:27:44;15.50;99.90
47961;DHT22;33721;48.852;9.936;2023-09-19T04:30:10;15.60;99.90
47961;DHT22;33721;48.852;9.936;2023-09-19T04:32:40;15.50;99.90
47961;DHT22;33721;48.852;9.936;2023-09-19T04:35:10;15.50;99.90
47961;DHT22;33721;48.852;9.936;2023-09-19T04:37:41;15.50;99.90
47961;DHT22;33721;48.852;9.936;2023-09-19T04:40:08;15.50;99.90
47961;DHT22;33721;48.852;9.936;2023-09-19T04:42:43;15.50;99.90
47961;DHT22;33721;48.852;9.936;2023-09-19T04:45:09;15.50;99.90
47961;DHT22;33721;48.852;9.936;2023-09-19T04:47:36;15.50;99.90
47961;DHT22;33721;48.852;9.936;2023-09-19T04:50:08;15.50;99.90
47961;DHT22;33721;48.852;9.936;2023-09-19T04:52:38;15.60;99.90
47961;DHT22;33721;48.852;9.936;2023-09-19T04:55:04;15.60;99.90
47961;DHT22;33721;48.852;9.936;2023-09-19T04:57:30;15.60;99.90
47961;DHT22;33721;48.852;9.936;2023-09-19T04:59:57;15.60;99.90
47961;DHT22;33721;48.852;9.936;2023-09-19T05:02:22;15.70;99.90
47961;DHT22;33721;48.852;9.936;2023-09-19T05:04:48;15.70;99.90
47961;DHT22;33721;48.852;9.936;2023-09-19T05:07:14;15.70;99.90
47961;DHT22;33721;48.852;9.936;2023-09-19T05:09:39;15.80;99.90
47961;DHT22;33721;48.852;9.936;2023-09-19T05:12:07;15.70;99.90
47961;DHT22;33721;48.852;9.936;2023-09-19T05:14:33;15.80;99.90
47961;DHT22;33721;48.852;9.936;2023-09-19T05:16:58;15.80;99.90
47961;DHT22;33721;48.852;9.936;2023-09-19T05:19:24;15.70;99.90
47961;DHT22;33721;48.852;9.936;2023-09-19T05:21:50;15.70;99.90
47961;DHT22;33721;48.852;9.936;2023-09-19T05:24:15;15.70;99.90
47961;DHT22;33721;48.852;9.936;2023-09-19T05:26:42;15.70;99.90
47961;DHT22;33721;48.852;9.936;2023-09-19T05:29:08;15.70;99.90
47961;DHT22;33721;48.852;9.936;2023-09-19T05:31:34;15.70;99.90
47961;DHT22;33721;48.852;9.936;2023-09-19T05:34:02;15.70;99.90
47961;DHT22;33721;48.852;9.936;2023-09-19T05:36:27;15.80;99.90
47961;DHT22;33721;48.852;9.936;2023-09-19T05:38:55;15.70;99.90
47961;DHT22;33721;48.852;9.936;2023-09-19T05:41:21;15.80;99.90
47961;DHT22;33721;48.852;9.936;2023-09-19T05:43:49;15.80;99.90
47961;DHT22;33721;48.852;9.936;2023-09-19T05:46:15;15.80;99.90
47961;DHT22;33721;48.852;9.936;2023-09-19T05:48:41;15.80;99.90
47961;DHT22;33721;48.852;9.936;2023-09-19T05:51:07;15.80;99.90
47961;DHT22;33721;48.852;9.936;2023-09-19T05:53:32;15.90;99.90
47961;DHT22;33721;48.852;9.936;2023-09-19T05:55:58;15.90;99.90
47961;DHT22;33721;48.852;9.936;2023-09-19T05:58:26;15.90;99.90
47961;DHT22;33721;48.852;9.936;2023-09-19T06:00:52;15.90;99.90
47961;DHT22;33721;48.852;9.936;2023-09-19T06:03:17;15.90;99.90
47961;DHT22;33721;48.852;9.936;2023-09-19T06:05:44;15.90;99.90
47961;DHT22;33721;48.852;9.936;2023-09-19T06:08:11;15.90;99.90
47961;DHT22;33721;48.852;9.936;2023-09-19T06:10:37;15.90;99.90
47961;DHT22;33721;48.852;9.936;2023-09-19T06:13:03;15.90;99.90
47961;DHT22;33721;48.852;9.936;2023-09-19T06:15:35;15.90;99.90
47961;DHT22;33721;48.852;9.936;2023-09-19T06:18:01;15.90;99.90
47961;DHT22;33721;48.852;9.936;2023-09-19T06:20:28;15.80;99.90
47961;DHT22;33721;48.852;9.936;2023-09-19T06:22:54;15.80;99.90
47961;DHT22;33721;48.852;9.936;2023-09-19T06:25:20;15.80;99.90
47961;DHT22;33721;48.852;9.936;2023-09-19T06:27:53;15.70;99.90
47961;DHT22;33721;48.852;9.936;2023-09-19T06:30:20;15.70;99.90
47961;DHT22;33721;48.852;9.936;2023-09-19T06:32:47;15.70;99.90
47961;DHT22;33721;48.852;9.936;2023-09-19T06:35:15;15.60;99.90
47961;DHT22;33721;48.852;9.936;2023-09-19T06:37:42;15.60;99.90
47961;DHT22;33721;48.852;9.936;2023-09-19T06:40:14;15.60;99.90
47961;DHT22;33721;48.852;9.936;2023-09-19T06:42:45;15.60;99.90
47961;DHT22;33721;48.852;9.936;2023-09-19T06:45:12;15.60;99.90
47961;DHT22;33721;48.852;9.936;2023-09-19T06:47:43;15.50;99.90
47961;DHT22;33721;48.852;9.936;2023-09-19T06:50:10;15.50;99.90
47961;DHT22;33721;48.852;9.936;2023-09-19T06:52:40;15.40;99.90
47961;DHT22;33721;48.852;9.936;2023-09-19T06:55:06;15.50;99.90
47961;DHT22;33721;48.852;9.936;2023-09-19T06:57:32;15.50;99.90
47961;DHT22;33721;48.852;9.936;2023-09-19T06:59:58;15.40;99.90
47961;DHT22;33721;48.852;9.936;2023-09-19T07:02:23;15.20;99.90
47961;DHT22;33721;48.852;9.936;2023-09-19T07:04:49;15.10;99.90
47961;DHT22;33721;48.852;9.936;2023-09-19T07:07:15;15.10;99.90
47961;DHT22;33721;48.852;9.936;2023-09-19T07:09:41;15.10;99.90
47961;DHT22;33721;48.852;9.936;2023-09-19T07:12:07;15.00;99.90
47961;DHT22;33721;48.852;9.936;2023-09-19T07:14:33;15.00;99.90
47961;DHT22;33721;48.852;9.936;2023-09-19T07:16:59;15.00;99.90
47961;DHT22;33721;48.852;9.936;2023-09-19T07:19:29;14.90;99.90
47961;DHT22;33721;48.852;9.936;2023-09-19T07:21:55;14.80;99.90
47961;DHT22;33721;48.852;9.936;2023-09-19T07:24:21;14.80;99.90
47961;DHT22;33721;48.852;9.936;2023-09-19T07:26:49;14.80;99.90
47961;DHT22;33721;48.852;9.936;2023-09-19T07:29:15;14.80;99.90
47961;DHT22;33721;48.852;9.936;2023-09-19T07:31:41;14.80;99.90
47961;DHT22;33721;48.852;9.936;2023-09-19T07:34:07;14.60;99.90
47961;DHT22;33721;48.852;9.936;2023-09-19T07:36:34;14.60;99.90
47961;DHT22;33721;48.852;9.936;2023-09-19T07:39:02;14.50;99.90
47961;DHT22;33721;48.852;9.936;2023-09-19T07:41:32;14.50;99.90
47961;DHT22;33721;48.852;9.936;2023-09-19T07:43:58;14.60;99.90
47961;DHT22;33721;48.852;9.936;2023-09-19T07:46:23;14.60;99.90
47961;DHT22;33721;48.852;9.936;2023-09-19T07:48:51;14.60;99.90
47961;DHT22;33721;48.852;9.936;2023-09-19T07:51:17;14.70;99.90
47961;DHT22;33721;48.852;9.936;2023-09-19T07:53:42;14.90;99.90
47961;DHT22;33721;48.852;9.936;2023-09-19T07:56:10;15.00;99.90
47961;DHT22;33721;48.852;9.936;2023-09-19T07:58:38;15.10;99.90
47961;DHT22;33721;48.852;9.936;2023-09-19T08:01:07;15.20;99.90
47961;DHT22;33721;48.852;9.936;2023-09-19T08:03:34;15.20;99.90
47961;DHT22;33721;48.852;9.936;2023-09-19T08:06:00;15.40;99.90
47961;DHT22;33721;48.852;9.936;2023-09-19T08:08:26;15.60;99.90
47961;DHT22;33721;48.852;9.936;2023-09-19T08:11:01;15.60;99.90
47961;DHT22;33721;48.852;9.936;2023-09-19T08:13:27;15.70;99.90
47961;DHT22;33721;48.852;9.936;2023-09-19T08:15:53;15.70;99.90
47961;DHT22;33721;48.852;9.936;2023-09-19T08:18:19;15.70;99.90
47961;DHT22;33721;48.852;9.936;2023-09-19T08:20:50;15.60;99.90
47961;DHT22;33721;48.852;9.936;2023-09-19T08:23:16;15.50;99.90
47961;DHT22;33721;48.852;9.936;2023-09-19T08:25:43;15.60;99.90
47961;DHT22;33721;48.852;9.936;2023-09-19T08:28:09;15.60;99.90
47961;DHT22;33721;48.852;9.936;2023-09-19T08:30:37;15.70;99.90
47961;DHT22;33721;48.852;9.936;2023-09-19T08:33:06;15.80;99.90
47961;DHT22;33721;48.852;9.936;2023-09-19T08:35:33;15.90;99.90
47961;DHT22;33721;48.852;9.936;2023-09-19T08:37:59;16.20;99.90
47961;DHT22;33721;48.852;9.936;2023-09-19T08:40:30;16.20;99.90
47961;DHT22;33721;48.852;9.936;2023-09-19T08:42:59;16.20;99.90
47961;DHT22;33721;48.852;9.936;2023-09-19T08:45:27;16.50;99.90
47961;DHT22;33721;48.852;9.936;2023-09-19T08:50:31;16.50;99.90
47961;DHT22;33721;48.852;9.936;2023-09-19T08:53:09;16.60;99.90
47961;DHT22;33721;48.852;9.936;2023-09-19T08:55:36;16.80;99.90
47961;DHT22;33721;48.852;9.936;2023-09-19T08:58:04;16.70;99.90
47961;DHT22;33721;48.852;9.936;2023-09-19T09:00:33;16.80;99.90
47961;DHT22;33721;48.852;9.936;2023-09-19T09:03:01;16.90;99.90
47961;DHT22;33721;48.852;9.936;2023-09-19T09:05:27;16.90;99.90
47961;DHT22;33721;48.852;9.936;2023-09-19T09:07:54;17.00;99.90
47961;DHT22;33721;48.852;9.936;2023-09-19T09:10:22;17.20;99.90
47961;DHT22;33721;48.852;9.936;2023-09-19T09:12:54;17.40;99.90
47961;DHT22;33721;48.852;9.936;2023-09-19T09:15:23;17.50;99.90
47961;DHT22;33721;48.852;9.936;2023-09-19T09:17:50;17.50;99.90
47961;DHT22;33721;48.852;9.936;2023-09-19T09:20:18;17.60;99.90
47961;DHT22;33721;48.852;9.936;2023-09-19T09:22:51;17.50;99.90
47961;DHT22;33721;48.852;9.936;2023-09-19T09:25:17;17.60;99.90
47961;DHT22;33721;48.852;9.936;2023-09-19T09:27:43;17.30;99.90
47961;DHT22;33721;48.852;9.936;2023-09-19T09:30:36;17.00;99.90
47961;DHT22;33721;48.852;9.936;2023-09-19T09:33:13;16.80;99.90
47961;DHT22;33721;48.852;9.936;2023-09-19T09:35:57;16.70;99.90
47961;DHT22;33721;48.852;9.936;2023-09-19T09:38:29;16.60;99.90
47961;DHT22;33721;48.852;9.936;2023-09-19T09:40:58;16.60;99.90
47961;DHT22;33721;48.852;9.936;2023-09-19T09:43:34;16.60;99.90
47961;DHT22;33721;48.852;9.936;2023-09-19T09:46:15;16.70;99.90
47961;DHT22;33721;48.852;9.936;2023-09-19T09:48:47;16.80;99.90
47961;DHT22;33721;48.852;9.936;2023-09-19T09:51:34;17.00;99.90
47961;DHT22;33721;48.852;9.936;2023-09-19T09:54:13;17.10;99.90
47961;DHT22;33721;48.852;9.936;2023-09-19T09:59:50;17.60;99.90
47961;DHT22;33721;48.852;9.936;2023-09-19T10:02:20;17.90;99.90
47961;DHT22;33721;48.852;9.936;2023-09-19T10:04:58;18.00;99.90
47961;DHT22;33721;48.852;9.936;2023-09-19T10:07:32;18.00;99.90
47961;DHT22;33721;48.852;9.936;2023-09-19T10:10:05;17.90;99.90
47961;DHT22;33721;48.852;9.936;2023-09-19T10:12:59;17.80;99.90
47961;DHT22;33721;48.852;9.936;2023-09-19T10:15:31;17.70;99.90
47961;DHT22;33721;48.852;9.936;2023-09-19T10:18:00;17.70;99.90
47961;DHT22;33721;48.852;9.936;2023-09-19T10:20:28;18.00;99.90
47961;DHT22;33721;48.852;9.936;2023-09-19T10:23:07;18.20;99.90
47961;DHT22;33721;48.852;9.936;2023-09-19T10:25:40;18.30;99.90
47961;DHT22;33721;48.852;9.936;2023-09-19T10:28:08;18.40;99.90
47961;DHT22;33721;48.852;9.936;2023-09-19T10:30:37;18.10;99.90
47961;DHT22;33721;48.852;9.936;2023-09-19T10:33:04;17.90;99.90
47961;DHT22;33721;48.852;9.936;2023-09-19T10:35:33;17.70;99.90
47961;DHT22;33721;48.852;9.936;2023-09-19T10:38:04;17.60;99.90
47961;DHT22;33721;48.852;9.936;2023-09-19T10:40:33;17.50;99.90
47961;DHT22;33721;48.852;9.936;2023-09-19T10:43:04;17.50;99.90
47961;DHT22;33721;48.852;9.936;2023-09-19T10:45:32;17.80;99.90
47961;DHT22;33721;48.852;9.936;2023-09-19T10:48:00;18.30;99.90
47961;DHT22;33721;48.852;9.936;2023-09-19T10:50:44;18.50;99.90
47961;DHT22;33721;48.852;9.936;2023-09-19T10:53:12;18.70;99.90
47961;DHT22;33721;48.852;9.936;2023-09-19T10:55:39;18.80;99.90
47961;DHT22;33721;48.852;9.936;2023-09-19T10:58:06;18.50;99.90
47961;DHT22;33721;48.852;9.936;2023-09-19T11:00:54;18.70;99.90
47961;DHT22;33721;48.852;9.936;2023-09-19T11:03:21;18.90;99.90
47961;DHT22;33721;48.852;9.936;2023-09-19T11:06:09;18.90;99.90
47961;DHT22;33721;48.852;9.936;2023-09-19T11:09:03;18.90;99.90
47961;DHT22;33721;48.852;9.936;2023-09-19T11:30:36;20.00;99.90
47961;DHT22;33721;48.852;9.936;2023-09-19T11:33:22;20.00;99.90
47961;DHT22;33721;48.852;9.936;2023-09-19T11:43:53;19.50;99.90
47961;DHT22;33721;48.852;9.936;2023-09-19T11:46:24;19.40;99.90
47961;DHT22;33721;48.852;9.936;2023-09-19T11:48:51;19.50;99.90
47961;DHT22;33721;48.852;9.936;2023-09-19T11:51:22;19.20;99.90
47961;DHT22;33721;48.852;9.936;2023-09-19T11:53:53;19.40;99.90
47961;DHT22;33721;48.852;9.936;2023-09-19T11:56:20;19.90;99.90
47961;DHT22;33721;48.852;9.936;2023-09-19T11:58:52;20.50;99.90
47961;DHT22;33721;48.852;9.936;2023-09-19T12:01:30;20.70;99.90
47961;DHT22;33721;48.852;9.936;2023-09-19T12:03:58;20.90;99.90
47961;DHT22;33721;48.852;9.936;2023-09-19T12:06:28;20.30;99.90
47961;DHT22;33721;48.852;9.936;2023-09-19T12:09:01;20.20;99.90
47961;DHT22;33721;48.852;9.936;2023-09-19T12:11:32;19.90;99.90
47961;DHT22;33721;48.852;9.936;2023-09-19T12:13:59;19.80;99.90
47961;DHT22;33721;48.852;9.936;2023-09-19T12:16:26;19.70;99.90
47961;DHT22;33721;48.852;9.936;2023-09-19T12:18:56;19.80;99.90
47961;DHT22;33721;48.852;9.936;2023-09-19T12:21:27;20.40;99.90
47961;DHT22;33721;48.852;9.936;2023-09-19T12:24:20;20.50;99.90
47961;DHT22;33721;48.852;9.936;2023-09-19T12:26:46;20.70;99.90
47961;DHT22;33721;48.852;9.936;2023-09-19T12:29:19;21.20;99.90
47961;DHT22;33721;48.852;9.936;2023-09-19T12:31:58;21.20;99.90
47961;DHT22;33721;48.852;9.936;2023-09-19T12:34:26;21.40;99.90
47961;DHT22;33721;48.852;9.936;2023-09-19T12:37:12;21.40;99.90
47961;DHT22;33721;48.852;9.936;2023-09-19T12:39:42;21.10;99.90
47961;DHT22;33721;48.852;9.936;2023-09-19T12:42:10;21.00;99.90
47961;DHT22;33721;48.852;9.936;2023-09-19T12:44:37;21.00;99.90
47961;DHT22;33721;48.852;9.936;2023-09-19T12:47:17;21.00;99.90
47961;DHT22;33721;48.852;9.936;2023-09-19T12:50:11;20.80;99.90
47961;DHT22;33721;48.852;9.936;2023-09-19T12:52:48;20.90;99.90
47961;DHT22;33721;48.852;9.936;2023-09-19T12:55:29;21.10;99.90
47961;DHT22;33721;48.852;9.936;2023-09-19T12:58:12;21.50;99.90
47961;DHT22;33721;48.852;9.936;2023-09-19T13:00:42;21.70;99.90
47961;DHT22;33721;48.852;9.936;2023-09-19T13:03:36;21.90;99.90
47961;DHT22;33721;48.852;9.936;2023-09-19T13:06:03;21.80;99.90
47961;DHT22;33721;48.852;9.936;2023-09-19T13:08:35;21.80;99.90
47961;DHT22;33721;48.852;9.936;2023-09-19T13:13:32;22.10;99.90
47961;DHT22;33721;48.852;9.936;2023-09-19T13:15:58;22.40;99.90
47961;DHT22;33721;48.852;9.936;2023-09-19T13:18:26;22.60;99.90
47961;DHT22;33721;48.852;9.936;2023-09-19T13:21:14;22.40;99.90
47961;DHT22;33721;48.852;9.936;2023-09-19T13:23:56;22.30;99.90
47961;DHT22;33721;48.852;9.936;2023-09-19T13:26:41;22.00;99.90
47961;DHT22;33721;48.852;9.936;2023-09-19T13:29:07;22.10;99.90
47961;DHT22;33721;48.852;9.936;2023-09-19T13:31:32;22.20;99.90
47961;DHT22;33721;48.852;9.936;2023-09-19T13:33:58;21.90;99.90
47961;DHT22;33721;48.852;9.936;2023-09-19T13:36:24;21.90;99.90
47961;DHT22;33721;48.852;9.936;2023-09-19T13:38:50;22.00;99.90
47961;DHT22;33721;48.852;9.936;2023-09-19T13:41:15;21.80;99.90
47961;DHT22;33721;48.852;9.936;2023-09-19T13:43:42;21.40;99.90
47961;DHT22;33721;48.852;9.936;2023-09-19T13:46:07;21.10;99.90
47961;DHT22;33721;48.852;9.936;2023-09-19T13:48:33;20.70;99.90
47961;DHT22;33721;48.852;9.936;2023-09-19T13:51:02;20.60;99.90
47961;DHT22;33721;48.852;9.936;2023-09-19T13:53:29;20.50;99.90
47961;DHT22;33721;48.852;9.936;2023-09-19T13:55:54;20.70;99.90
47961;DHT22;33721;48.852;9.936;2023-09-19T13:58:20;21.20;99.90
47961;DHT22;33721;48.852;9.936;2023-09-19T14:00:46;21.10;99.90
47961;DHT22;33721;48.852;9.936;2023-09-19T14:03:12;20.80;99.90
47961;DHT22;33721;48.852;9.936;2023-09-19T14:05:38;20.60;99.90
47961;DHT22;33721;48.852;9.936;2023-09-19T14:08:03;20.60;99.90
47961;DHT22;33721;48.852;9.936;2023-09-19T14:10:30;21.10;99.90
47961;DHT22;33721;48.852;9.936;2023-09-19T14:12:57;21.50;99.90
47961;DHT22;33721;48.852;9.936;2023-09-19T14:15:25;21.60;99.90
47961;DHT22;33721;48.852;9.936;2023-09-19T14:17:58;21.40;99.90
47961;DHT22;33721;48.852;9.936;2023-09-19T14:20:25;21.30;99.90
47961;DHT22;33721;48.852;9.936;2023-09-19T14:22:52;21.00;99.90
47961;DHT22;33721;48.852;9.936;2023-09-19T14:25:18;20.70;99.90
47961;DHT22;33721;48.852;9.936;2023-09-19T14:27:44;20.80;99.90
47961;DHT22;33721;48.852;9.936;2023-09-19T14:30:10;21.10;99.90
47961;DHT22;33721;48.852;9.936;2023-09-19T14:32:36;21.40;99.90
47961;DHT22;33721;48.852;9.936;2023-09-19T14:35:02;21.20;99.90
47961;DHT22;33721;48.852;9.936;2023-09-19T14:37:28;21.00;99.90
47961;DHT22;33721;48.852;9.936;2023-09-19T14:39:54;21.10;99.90
47961;DHT22;33721;48.852;9.936;2023-09-19T14:42:20;21.30;99.90
47961;DHT22;33721;48.852;9.936;2023-09-19T14:44:45;21.40;99.90
47961;DHT22;33721;48.852;9.936;2023-09-19T14:47:12;21.40;99.90
47961;DHT22;33721;48.852;9.936;2023-09-19T14:49:39;21.10;99.90
47961;DHT22;33721;48.852;9.936;2023-09-19T14:52:09;20.80;99.90
47961;DHT22;33721;48.852;9.936;2023-09-19T14:54:36;20.70;99.90
47961;DHT22;33721;48.852;9.936;2023-09-19T14:57:03;20.70;99.90
47961;DHT22;33721;48.852;9.936;2023-09-19T14:59:33;20.60;99.90
47961;DHT22;33721;48.852;9.936;2023-09-19T15:01:59;20.60;99.90
47961;DHT22;33721;48.852;9.936;2023-09-19T15:04:26;20.60;99.90
47961;DHT22;33721;48.852;9.936;2023-09-19T15:06:52;20.60;99.90
47961;DHT22;33721;48.852;9.936;2023-09-19T15:09:21;20.60;99.90
47961;DHT22;33721;48.852;9.936;2023-09-19T15:11:55;20.60;99.90
47961;DHT22;33721;48.852;9.936;2023-09-19T15:14:24;20.50;99.90
47961;DHT22;33721;48.852;9.936;2023-09-19T15:16:50;20.50;99.90
47961;DHT22;33721;48.852;9.936;2023-09-19T15:19:16;20.40;99.90
47961;DHT22;33721;48.852;9.936;2023-09-19T15:21:43;20.30;99.90
47961;DHT22;33721;48.852;9.936;2023-09-19T15:24:09;20.30;99.90
47961;DHT22;33721;48.852;9.936;2023-09-19T15:26:36;20.30;99.90
47961;DHT22;33721;48.852;9.936;2023-09-19T15:29:07;20.30;99.90
47961;DHT22;33721;48.852;9.936;2023-09-19T15:31:33;20.40;99.90
47961;DHT22;33721;48.852;9.936;2023-09-19T15:34:02;20.50;99.90
47961;DHT22;33721;48.852;9.936;2023-09-19T15:36:27;20.60;99.90
47961;DHT22;33721;48.852;9.936;2023-09-19T15:39:03;20.60;99.90
47961;DHT22;33721;48.852;9.936;2023-09-19T15:41:37;20.50;99.90
47961;DHT22;33721;48.852;9.936;2023-09-19T15:44:04;20.50;99.90
47961;DHT22;33721;48.852;9.936;2023-09-19T15:46:31;20.50;99.90
47961;DHT22;33721;48.852;9.936;2023-09-19T15:48:58;20.30;99.90
47961;DHT22;33721;48.852;9.936;2023-09-19T15:51:26;20.20;99.90
47961;DHT22;33721;48.852;9.936;2023-09-19T15:53:53;20.20;99.90
47961;DHT22;33721;48.852;9.936;2023-09-19T15:56:19;20.10;99.90
47961;DHT22;33721;48.852;9.936;2023-09-19T15:58:54;20.00;99.90
47961;DHT22;33721;48.852;9.936;2023-09-19T16:01:21;20.00;99.90
47961;DHT22;33721;48.852;9.936;2023-09-19T16:03:52;19.90;99.90
47961;DHT22;33721;48.852;9.936;2023-09-19T16:06:21;19.80;99.90
47961;DHT22;33721;48.852;9.936;2023-09-19T16:08:50;19.80;99.90
47961;DHT22;33721;48.852;9.936;2023-09-19T16:11:17;19.80;99.90
47961;DHT22;33721;48.852;9.936;2023-09-19T16:13:43;19.70;99.90
47961;DHT22;33721;48.852;9.936;2023-09-19T16:16:14;19.60;99.90
47961;DHT22;33721;48.852;9.936;2023-09-19T16:18:46;19.50;99.90
47961;DHT22;33721;48.852;9.936;2023-09-19T16:21:14;19.60;99.90
47961;DHT22;33721;48.852;9.936;2023-09-19T16:23:40;19.60;99.90
47961;DHT22;33721;48.852;9.936;2023-09-19T16:26:08;19.60;99.90
47961;DHT22;33721;48.852;9.936;2023-09-19T16:28:35;19.70;99.90
47961;DHT22;33721;48.852;9.936;2023-09-19T16:31:02;19.70;99.90
47961;DHT22;33721;48.852;9.936;2023-09-19T16:33:31;19.70;99.90
47961;DHT22;33721;48.852;9.936;2023-09-19T16:35:57;19.70;99.90
47961;DHT22;33721;48.852;9.936;2023-09-19T16:38:24;19.60;99.90